sensor_id;sensor_type;location;lat;lon;timestamp;temperature;humidity
51175;DHT22;37240;50.104;20.010;2022-07-23T00:04:39;26.50;67.90
51175;DHT22;37240;50.104;20.010;2022-07-23T00:09:39;26.40;68.10
51175;DHT22;37240;50.104;20.010;2022-07-23T00:14:40;26.40;68.60
51175;DHT22;37240;50.104;20.010;2022-07-23T00:19:40;26.30;68.70
51175;DHT22;37240;50.104;20.010;2022-07-23T00:24:41;26.20;69.30
51175;DHT22;37240;50.104;20.010;2022-07-23T00:29:41;26.20;69.70
51175;DHT22;37240;50.104;20.010;2022-07-23T00:34:42;26.00;70.10
51175;DHT22;37240;50.104;20.010;2022-07-23T00:39:42;26.00;70.30
51175;DHT22;37240;50.104;20.010;2022-07-23T00:44:43;26.00;70.70
51175;DHT22;37240;50.104;20.010;2022-07-23T00:49:43;25.90;70.70
51175;DHT22;37240;50.104;20.010;2022-07-23T00:54:44;25.80;70.90
51175;DHT22;37240;50.104;20.010;2022-07-23T00:59:44;25.70;71.20
51175;DHT22;37240;50.104;20.010;2022-07-23T01:04:45;25.70;71.70
51175;DHT22;37240;50.104;20.010;2022-07-23T01:09:46;25.70;71.30
51175;DHT22;37240;50.104;20.010;2022-07-23T01:14:54;25.60;71.60
51175;DHT22;37240;50.104;20.010;2022-07-23T01:19:54;25.60;71.80
51175;DHT22;37240;50.104;20.010;2022-07-23T01:24:55;25.60;71.80
51175;DHT22;37240;50.104;20.010;2022-07-23T01:29:57;25.60;71.70
51175;DHT22;37240;50.104;20.010;2022-07-23T01:34:57;25.50;71.30
51175;DHT22;37240;50.104;20.010;2022-07-23T01:39:58;25.50;71.20
51175;DHT22;37240;50.104;20.010;2022-07-23T01:44:58;25.50;72.40
51175;DHT22;37240;50.104;20.010;2022-07-23T01:49:59;25.40;72.60
51175;DHT22;37240;50.104;20.010;2022-07-23T01:54:59;25.30;73.10
51175;DHT22;37240;50.104;20.010;2022-07-23T02:00:00;25.30;73.50
51175;DHT22;37240;50.104;20.010;2022-07-23T02:05:01;25.20;74.00
51175;DHT22;37240;50.104;20.010;2022-07-23T02:10:01;25.20;74.30
51175;DHT22;37240;50.104;20.010;2022-07-23T02:15:02;25.10;74.60
51175;DHT22;37240;50.104;20.010;2022-07-23T02:20:03;25.10;74.60
51175;DHT22;37240;50.104;20.010;2022-07-23T02:25:05;25.00;75.10
51175;DHT22;37240;50.104;20.010;2022-07-23T02:30:06;25.00;75.20
51175;DHT22;37240;50.104;20.010;2022-07-23T02:35:07;24.90;75.70
51175;DHT22;37240;50.104;20.010;2022-07-23T02:40:08;24.80;76.00
51175;DHT22;37240;50.104;20.010;2022-07-23T02:45:09;24.80;76.20
51175;DHT22;37240;50.104;20.010;2022-07-23T02:50:10;24.70;76.60
51175;DHT22;37240;50.104;20.010;2022-07-23T02:55:10;24.70;77.20
51175;DHT22;37240;50.104;20.010;2022-07-23T03:00:11;24.60;77.40
51175;DHT22;37240;50.104;20.010;2022-07-23T03:05:12;24.50;77.80
51175;DHT22;37240;50.104;20.010;2022-07-23T03:10:12;24.50;78.10
51175;DHT22;37240;50.104;20.010;2022-07-23T03:15:13;24.50;78.10
51175;DHT22;37240;50.104;20.010;2022-07-23T03:20:13;24.50;78.50
51175;DHT22;37240;50.104;20.010;2022-07-23T03:25:14;24.60;78.60
51175;DHT22;37240;50.104;20.010;2022-07-23T03:30:14;24.70;78.50
51175;DHT22;37240;50.104;20.010;2022-07-23T03:35:15;24.80;78.00
51175;DHT22;37240;50.104;20.010;2022-07-23T03:40:15;25.10;77.50
51175;DHT22;37240;50.104;20.010;2022-07-23T03:45:16;25.40;76.50
51175;DHT22;37240;50.104;20.010;2022-07-23T03:50:16;25.70;75.50
51175;DHT22;37240;50.104;20.010;2022-07-23T03:55:17;26.10;73.90
51175;DHT22;37240;50.104;20.010;2022-07-23T04:00:18;26.60;72.10
51175;DHT22;37240;50.104;20.010;2022-07-23T04:05:18;27.10;70.30
51175;DHT22;37240;50.104;20.010;2022-07-23T04:10:20;27.50;68.50
51175;DHT22;37240;50.104;20.010;2022-07-23T04:15:21;28.20;66.70
51175;DHT22;37240;50.104;20.010;2022-07-23T04:20:21;28.90;63.70
51175;DHT22;37240;50.104;20.010;2022-07-23T04:25:22;29.80;60.00
51175;DHT22;37240;50.104;20.010;2022-07-23T04:30:22;30.40;58.00
51175;DHT22;37240;50.104;20.010;2022-07-23T04:35:23;31.10;55.90
51175;DHT22;37240;50.104;20.010;2022-07-23T04:40:23;32.00;53.80
51175;DHT22;37240;50.104;20.010;2022-07-23T04:45:24;32.60;52.00
51175;DHT22;37240;50.104;20.010;2022-07-23T04:50:24;33.30;50.70
51175;DHT22;37240;50.104;20.010;2022-07-23T04:55:25;33.90;49.40
51175;DHT22;37240;50.104;20.010;2022-07-23T05:00:26;34.60;48.10
51175;DHT22;37240;50.104;20.010;2022-07-23T05:05:26;35.30;47.30
51175;DHT22;37240;50.104;20.010;2022-07-23T05:10:27;35.70;45.80
51175;DHT22;37240;50.104;20.010;2022-07-23T05:15:27;36.00;44.50
51175;DHT22;37240;50.104;20.010;2022-07-23T05:20:28;35.70;45.10
51175;DHT22;37240;50.104;20.010;2022-07-23T05:25:28;35.70;45.10
51175;DHT22;37240;50.104;20.010;2022-07-23T05:30:29;35.00;46.00
51175;DHT22;37240;50.104;20.010;2022-07-23T05:35:29;34.50;47.40
51175;DHT22;37240;50.104;20.010;2022-07-23T05:40:30;35.70;45.90
51175;DHT22;37240;50.104;20.010;2022-07-23T05:45:30;36.40;44.30
51175;DHT22;37240;50.104;20.010;2022-07-23T05:50:31;36.20;44.80
51175;DHT22;37240;50.104;20.010;2022-07-23T05:55:31;36.40;44.20
51175;DHT22;37240;50.104;20.010;2022-07-23T06:00:32;35.60;45.90
51175;DHT22;37240;50.104;20.010;2022-07-23T06:05:33;36.00;45.20
51175;DHT22;37240;50.104;20.010;2022-07-23T06:10:33;37.00;44.40
51175;DHT22;37240;50.104;20.010;2022-07-23T06:15:34;37.20;43.80
51175;DHT22;37240;50.104;20.010;2022-07-23T06:20:34;37.40;43.70
51175;DHT22;37240;50.104;20.010;2022-07-23T06:25:35;38.10;43.00
51175;DHT22;37240;50.104;20.010;2022-07-23T06:30:35;38.50;42.60
51175;DHT22;37240;50.104;20.010;2022-07-23T06:35:36;38.60;42.00
51175;DHT22;37240;50.104;20.010;2022-07-23T06:40:36;38.50;42.10
51175;DHT22;37240;50.104;20.010;2022-07-23T06:45:37;38.50;42.30
51175;DHT22;37240;50.104;20.010;2022-07-23T06:50:37;38.20;42.50
51175;DHT22;37240;50.104;20.010;2022-07-23T06:55:38;38.00;42.60
51175;DHT22;37240;50.104;20.010;2022-07-23T07:00:39;38.10;42.70
51175;DHT22;37240;50.104;20.010;2022-07-23T07:05:39;38.20;42.80
51175;DHT22;37240;50.104;20.010;2022-07-23T07:10:40;38.20;42.40
51175;DHT22;37240;50.104;20.010;2022-07-23T07:15:41;38.40;42.40
51175;DHT22;37240;50.104;20.010;2022-07-23T07:20:41;38.60;42.10
51175;DHT22;37240;50.104;20.010;2022-07-23T07:25:42;38.80;41.50
51175;DHT22;37240;50.104;20.010;2022-07-23T07:30:42;38.80;41.50
51175;DHT22;37240;50.104;20.010;2022-07-23T07:35:43;38.90;41.30
51175;DHT22;37240;50.104;20.010;2022-07-23T07:40:44;39.00;41.10
51175;DHT22;37240;50.104;20.010;2022-07-23T07:45:44;39.10;40.80
51175;DHT22;37240;50.104;20.010;2022-07-23T07:50:45;38.90;40.80
51175;DHT22;37240;50.104;20.010;2022-07-23T07:55:46;38.70;41.40
51175;DHT22;37240;50.104;20.010;2022-07-23T08:00:46;38.70;40.50
51175;DHT22;37240;50.104;20.010;2022-07-23T08:05:47;38.80;40.90
51175;DHT22;37240;50.104;20.010;2022-07-23T08:10:48;38.80;39.30
51175;DHT22;37240;50.104;20.010;2022-07-23T08:15:48;38.80;39.60
51175;DHT22;37240;50.104;20.010;2022-07-23T08:20:49;38.90;38.90
51175;DHT22;37240;50.104;20.010;2022-07-23T08:25:49;39.00;39.00
51175;DHT22;37240;50.104;20.010;2022-07-23T08:30:50;39.10;38.80
51175;DHT22;37240;50.104;20.010;2022-07-23T08:35:51;39.10;38.20
51175;DHT22;37240;50.104;20.010;2022-07-23T08:40:53;39.10;38.50
51175;DHT22;37240;50.104;20.010;2022-07-23T08:45:55;39.00;37.90
51175;DHT22;37240;50.104;20.010;2022-07-23T08:50:58;39.00;38.20
51175;DHT22;37240;50.104;20.010;2022-07-23T08:56:03;38.90;37.30
51175;DHT22;37240;50.104;20.010;2022-07-23T09:01:03;38.80;35.80
51175;DHT22;37240;50.104;20.010;2022-07-23T09:06:04;38.80;36.20
51175;DHT22;37240;50.104;20.010;2022-07-23T09:11:13;38.80;37.20
51175;DHT22;37240;50.104;20.010;2022-07-23T09:21:38;38.60;36.50
51175;DHT22;37240;50.104;20.010;2022-07-23T09:36:44;38.60;36.10
51175;DHT22;37240;50.104;20.010;2022-07-23T09:41:46;38.40;35.20
51175;DHT22;37240;50.104;20.010;2022-07-23T09:46:49;38.40;36.80
51175;DHT22;37240;50.104;20.010;2022-07-23T09:51:52;38.30;36.80
51175;DHT22;37240;50.104;20.010;2022-07-23T09:56:54;38.20;36.70
51175;DHT22;37240;50.104;20.010;2022-07-23T10:01:57;37.90;35.70
51175;DHT22;37240;50.104;20.010;2022-07-23T10:07:00;37.60;35.50
51175;DHT22;37240;50.104;20.010;2022-07-23T10:12:06;37.60;35.50
51175;DHT22;37240;50.104;20.010;2022-07-23T10:17:09;37.70;35.60
51175;DHT22;37240;50.104;20.010;2022-07-23T10:22:22;37.30;35.90
51175;DHT22;37240;50.104;20.010;2022-07-23T10:32:44;37.40;35.60
51175;DHT22;37240;50.104;20.010;2022-07-23T10:37:49;37.40;37.60
51175;DHT22;37240;50.104;20.010;2022-07-23T10:42:52;37.30;37.70
51175;DHT22;37240;50.104;20.010;2022-07-23T10:47:53;37.30;36.90
51175;DHT22;37240;50.104;20.010;2022-07-23T10:58:06;37.20;38.20
51175;DHT22;37240;50.104;20.010;2022-07-23T11:03:29;37.40;39.50
51175;DHT22;37240;50.104;20.010;2022-07-23T11:08:29;37.40;38.30
51175;DHT22;37240;50.104;20.010;2022-07-23T11:13:32;37.20;38.30
51175;DHT22;37240;50.104;20.010;2022-07-23T11:24:04;37.20;37.80
51175;DHT22;37240;50.104;20.010;2022-07-23T11:34:36;37.40;35.50
51175;DHT22;37240;50.104;20.010;2022-07-23T11:39:39;37.40;35.50
51175;DHT22;37240;50.104;20.010;2022-07-23T11:44:40;37.60;35.30
51175;DHT22;37240;50.104;20.010;2022-07-23T11:49:52;37.50;36.30
51175;DHT22;37240;50.104;20.010;2022-07-23T11:54:59;37.50;35.40
51175;DHT22;37240;50.104;20.010;2022-07-23T12:00:10;37.30;35.10
51175;DHT22;37240;50.104;20.010;2022-07-23T12:05:13;37.10;35.40
51175;DHT22;37240;50.104;20.010;2022-07-23T12:10:26;37.10;36.00
51175;DHT22;37240;50.104;20.010;2022-07-23T12:15:39;37.10;35.40
51175;DHT22;37240;50.104;20.010;2022-07-23T12:20:43;37.00;35.90
51175;DHT22;37240;50.104;20.010;2022-07-23T12:25:46;36.90;35.50
51175;DHT22;37240;50.104;20.010;2022-07-23T12:35:47;36.80;34.90
51175;DHT22;37240;50.104;20.010;2022-07-23T12:40:56;36.60;35.00
51175;DHT22;37240;50.104;20.010;2022-07-23T12:46:12;36.60;36.50
51175;DHT22;37240;50.104;20.010;2022-07-23T12:51:19;36.60;36.70
51175;DHT22;37240;50.104;20.010;2022-07-23T12:56:30;36.60;36.50
51175;DHT22;37240;50.104;20.010;2022-07-23T13:01:32;36.60;36.00
51175;DHT22;37240;50.104;20.010;2022-07-23T13:06:36;36.50;35.70
51175;DHT22;37240;50.104;20.010;2022-07-23T13:11:37;36.60;36.50
51175;DHT22;37240;50.104;20.010;2022-07-23T13:16:37;36.50;36.50
51175;DHT22;37240;50.104;20.010;2022-07-23T13:21:39;36.50;36.80
51175;DHT22;37240;50.104;20.010;2022-07-23T13:26:41;36.50;36.40
51175;DHT22;37240;50.104;20.010;2022-07-23T13:31:42;36.50;36.50
51175;DHT22;37240;50.104;20.010;2022-07-23T13:36:42;36.60;36.00
51175;DHT22;37240;50.104;20.010;2022-07-23T13:41:43;36.80;36.10
51175;DHT22;37240;50.104;20.010;2022-07-23T13:46:43;36.90;36.30
51175;DHT22;37240;50.104;20.010;2022-07-23T13:51:44;37.10;36.10
51175;DHT22;37240;50.104;20.010;2022-07-23T13:56:44;37.20;35.90
51175;DHT22;37240;50.104;20.010;2022-07-23T14:01:45;37.30;34.90
51175;DHT22;37240;50.104;20.010;2022-07-23T14:06:45;37.20;35.00
51175;DHT22;37240;50.104;20.010;2022-07-23T14:11:46;37.10;34.70
51175;DHT22;37240;50.104;20.010;2022-07-23T14:16:46;36.90;35.40
51175;DHT22;37240;50.104;20.010;2022-07-23T14:21:47;36.80;35.20
51175;DHT22;37240;50.104;20.010;2022-07-23T14:26:48;36.70;35.70
51175;DHT22;37240;50.104;20.010;2022-07-23T14:31:48;36.60;36.00
51175;DHT22;37240;50.104;20.010;2022-07-23T14:36:49;36.50;36.20
51175;DHT22;37240;50.104;20.010;2022-07-23T14:41:49;36.40;36.50
51175;DHT22;37240;50.104;20.010;2022-07-23T14:46:50;36.20;37.20
51175;DHT22;37240;50.104;20.010;2022-07-23T14:51:50;35.90;37.90
51175;DHT22;37240;50.104;20.010;2022-07-23T14:56:51;35.80;39.00
51175;DHT22;37240;50.104;20.010;2022-07-23T15:01:52;35.70;40.00
51175;DHT22;37240;50.104;20.010;2022-07-23T15:06:53;35.50;39.90
51175;DHT22;37240;50.104;20.010;2022-07-23T15:11:54;35.30;40.50
51175;DHT22;37240;50.104;20.010;2022-07-23T15:16:54;35.00;41.30
51175;DHT22;37240;50.104;20.010;2022-07-23T15:21:55;34.60;41.20
51175;DHT22;37240;50.104;20.010;2022-07-23T15:26:56;33.60;41.80
51175;DHT22;37240;50.104;20.010;2022-07-23T15:31:56;32.60;44.90
51175;DHT22;37240;50.104;20.010;2022-07-23T15:37:00;31.70;52.10
51175;DHT22;37240;50.104;20.010;2022-07-23T15:42:02;30.90;56.40
51175;DHT22;37240;50.104;20.010;2022-07-23T15:47:02;30.50;57.40
51175;DHT22;37240;50.104;20.010;2022-07-23T15:52:03;30.30;56.50
51175;DHT22;37240;50.104;20.010;2022-07-23T15:57:04;30.20;58.20
51175;DHT22;37240;50.104;20.010;2022-07-23T16:02:05;30.20;58.60
51175;DHT22;37240;50.104;20.010;2022-07-23T16:07:05;30.10;59.50
51175;DHT22;37240;50.104;20.010;2022-07-23T16:12:06;29.90;61.30
51175;DHT22;37240;50.104;20.010;2022-07-23T16:17:06;29.70;61.70
51175;DHT22;37240;50.104;20.010;2022-07-23T16:22:07;29.60;63.10
51175;DHT22;37240;50.104;20.010;2022-07-23T16:27:08;29.50;63.70
51175;DHT22;37240;50.104;20.010;2022-07-23T16:32:08;29.50;63.60
51175;DHT22;37240;50.104;20.010;2022-07-23T16:37:09;29.30;64.80
51175;DHT22;37240;50.104;20.010;2022-07-23T16:42:10;29.00;66.60
51175;DHT22;37240;50.104;20.010;2022-07-23T16:47:11;28.80;68.00
51175;DHT22;37240;50.104;20.010;2022-07-23T16:52:11;29.00;72.50
51175;DHT22;37240;50.104;20.010;2022-07-23T16:57:12;29.00;75.40
51175;DHT22;37240;50.104;20.010;2022-07-23T17:02:12;29.00;72.80
51175;DHT22;37240;50.104;20.010;2022-07-23T17:07:13;29.00;70.00
51175;DHT22;37240;50.104;20.010;2022-07-23T17:12:14;29.00;70.10
51175;DHT22;37240;50.104;20.010;2022-07-23T17:17:14;29.10;71.00
51175;DHT22;37240;50.104;20.010;2022-07-23T17:22:15;28.90;75.80
51175;DHT22;37240;50.104;20.010;2022-07-23T17:27:15;28.70;75.90
51175;DHT22;37240;50.104;20.010;2022-07-23T17:32:16;28.80;77.30
51175;DHT22;37240;50.104;20.010;2022-07-23T17:37:16;28.70;76.60
51175;DHT22;37240;50.104;20.010;2022-07-23T17:42:17;28.40;76.30
51175;DHT22;37240;50.104;20.010;2022-07-23T17:47:17;28.20;76.90
51175;DHT22;37240;50.104;20.010;2022-07-23T17:52:18;28.10;78.40
51175;DHT22;37240;50.104;20.010;2022-07-23T17:57:18;28.10;77.00
51175;DHT22;37240;50.104;20.010;2022-07-23T18:02:19;28.10;77.40
51175;DHT22;37240;50.104;20.010;2022-07-23T18:07:19;28.30;76.70
51175;DHT22;37240;50.104;20.010;2022-07-23T18:12:20;28.20;77.90
51175;DHT22;37240;50.104;20.010;2022-07-23T18:17:20;28.10;78.30
51175;DHT22;37240;50.104;20.010;2022-07-23T18:22:21;27.90;78.20
51175;DHT22;37240;50.104;20.010;2022-07-23T18:27:22;27.90;80.00
51175;DHT22;37240;50.104;20.010;2022-07-23T18:32:22;27.80;81.90
51175;DHT22;37240;50.104;20.010;2022-07-23T18:37:24;27.90;82.70
51175;DHT22;37240;50.104;20.010;2022-07-23T18:42:25;27.80;84.40
51175;DHT22;37240;50.104;20.010;2022-07-23T18:47:26;27.90;86.80
51175;DHT22;37240;50.104;20.010;2022-07-23T18:52:27;27.80;87.80
51175;DHT22;37240;50.104;20.010;2022-07-23T18:57:27;27.60;87.20
51175;DHT22;37240;50.104;20.010;2022-07-23T19:02:28;27.50;86.30
51175;DHT22;37240;50.104;20.010;2022-07-23T19:07:28;27.30;84.60
51175;DHT22;37240;50.104;20.010;2022-07-23T19:12:29;27.20;87.90
51175;DHT22;37240;50.104;20.010;2022-07-23T19:17:29;27.20;88.80
51175;DHT22;37240;50.104;20.010;2022-07-23T19:22:30;27.00;87.80
51175;DHT22;37240;50.104;20.010;2022-07-23T19:27:30;27.00;90.00
51175;DHT22;37240;50.104;20.010;2022-07-23T19:32:31;27.00;91.10
51175;DHT22;37240;50.104;20.010;2022-07-23T19:37:32;26.90;91.30
51175;DHT22;37240;50.104;20.010;2022-07-23T19:42:33;26.90;91.30
51175;DHT22;37240;50.104;20.010;2022-07-23T19:47:35;26.80;90.90
51175;DHT22;37240;50.104;20.010;2022-07-23T19:52:35;26.80;91.30
51175;DHT22;37240;50.104;20.010;2022-07-23T19:57:36;26.80;91.90
51175;DHT22;37240;50.104;20.010;2022-07-23T20:02:38;26.70;92.20
51175;DHT22;37240;50.104;20.010;2022-07-23T20:07:39;26.70;92.10
51175;DHT22;37240;50.104;20.010;2022-07-23T20:12:39;26.70;92.60
51175;DHT22;37240;50.104;20.010;2022-07-23T20:17:41;26.50;92.70
51175;DHT22;37240;50.104;20.010;2022-07-23T20:22:41;26.40;93.20
51175;DHT22;37240;50.104;20.010;2022-07-23T20:27:42;26.40;93.30
51175;DHT22;37240;50.104;20.010;2022-07-23T20:32:42;26.40;93.50
51175;DHT22;37240;50.104;20.010;2022-07-23T20:37:43;26.30;93.20
51175;DHT22;37240;50.104;20.010;2022-07-23T20:42:43;26.30;93.40
51175;DHT22;37240;50.104;20.010;2022-07-23T20:47:44;26.20;93.80
51175;DHT22;37240;50.104;20.010;2022-07-23T20:52:45;26.20;94.10
51175;DHT22;37240;50.104;20.010;2022-07-23T20:57:46;26.20;94.40
51175;DHT22;37240;50.104;20.010;2022-07-23T21:02:46;26.10;94.70
51175;DHT22;37240;50.104;20.010;2022-07-23T21:07:47;26.10;95.00
51175;DHT22;37240;50.104;20.010;2022-07-23T21:12:47;26.00;95.20
51175;DHT22;37240;50.104;20.010;2022-07-23T21:17:48;26.00;95.70
51175;DHT22;37240;50.104;20.010;2022-07-23T21:22:48;26.00;95.80
51175;DHT22;37240;50.104;20.010;2022-07-23T21:27:49;26.00;95.60
51175;DHT22;37240;50.104;20.010;2022-07-23T21:32:49;26.00;95.40
51175;DHT22;37240;50.104;20.010;2022-07-23T21:37:50;26.00;94.90
51175;DHT22;37240;50.104;20.010;2022-07-23T21:42:50;25.70;94.40
51175;DHT22;37240;50.104;20.010;2022-07-23T21:47:51;25.60;94.70
51175;DHT22;37240;50.104;20.010;2022-07-23T21:52:51;25.60;94.70
51175;DHT22;37240;50.104;20.010;2022-07-23T21:57:52;25.60;95.10
51175;DHT22;37240;50.104;20.010;2022-07-23T22:02:53;25.60;95.50
51175;DHT22;37240;50.104;20.010;2022-07-23T22:07:54;25.50;95.80
51175;DHT22;37240;50.104;20.010;2022-07-23T22:12:54;25.50;96.00
51175;DHT22;37240;50.104;20.010;2022-07-23T22:17:55;25.50;96.60
51175;DHT22;37240;50.104;20.010;2022-07-23T22:22:56;25.50;96.30
51175;DHT22;37240;50.104;20.010;2022-07-23T22:27:56;25.50;96.50
51175;DHT22;37240;50.104;20.010;2022-07-23T22:32:57;25.40;96.50
51175;DHT22;37240;50.104;20.010;2022-07-23T22:37:58;25.40;96.50
51175;DHT22;37240;50.104;20.010;2022-07-23T22:42:58;25.40;96.60
51175;DHT22;37240;50.104;20.010;2022-07-23T22:47:59;25.40;96.90
51175;DHT22;37240;50.104;20.010;2022-07-23T22:52:59;25.30;97.00
51175;DHT22;37240;50.104;20.010;2022-07-23T22:58:00;25.30;97.10
51175;DHT22;37240;50.104;20.010;2022-07-23T23:03:00;25.20;97.30
51175;DHT22;37240;50.104;20.010;2022-07-23T23:08:01;25.20;97.40
51175;DHT22;37240;50.104;20.010;2022-07-23T23:13:02;25.10;97.40
51175;DHT22;37240;50.104;20.010;2022-07-23T23:18:02;25.20;97.40
51175;DHT22;37240;50.104;20.010;2022-07-23T23:23:03;25.20;97.50
51175;DHT22;37240;50.104;20.010;2022-07-23T23:28:03;25.10;97.30
51175;DHT22;37240;50.104;20.010;2022-07-23T23:33:04;25.10;97.50
51175;DHT22;37240;50.104;20.010;2022-07-23T23:38:05;25.00;97.70
51175;DHT22;37240;50.104;20.010;2022-07-23T23:43:05;25.00;97.80
51175;DHT22;37240;50.104;20.010;2022-07-23T23:48:06;25.00;97.80
51175;DHT22;37240;50.104;20.010;2022-07-23T23:53:07;25.00;97.60
51175;DHT22;37240;50.104;20.010;2022-07-23T23:58:09;24.90;97.70
